sensor_id;sensor_type;location;lat;lon;timestamp;P1;durP1;ratioP1;P2;durP2;ratioP2
21166;SDS011;10741;52.272;9.580;2022-12-05T00:01:29;85.90;;;32.67;;
21166;SDS011;10741;52.272;9.580;2022-12-05T00:03:59;95.10;;;32.30;;
21166;SDS011;10741;52.272;9.580;2022-12-05T00:06:28;82.50;;;31.17;;
21166;SDS011;10741;52.272;9.580;2022-12-05T00:08:55;96.83;;;33.33;;
21166;SDS011;10741;52.272;9.580;2022-12-05T00:11:22;96.03;;;32.60;;
21166;SDS011;10741;52.272;9.580;2022-12-05T00:13:51;96.97;;;34.23;;
21166;SDS011;10741;52.272;9.580;2022-12-05T00:16:19;78.70;;;30.90;;
21166;SDS011;10741;52.272;9.580;2022-12-05T00:18:46;93.33;;;33.50;;
21166;SDS011;10741;52.272;9.580;2022-12-05T00:21:14;86.27;;;32.47;;
21166;SDS011;10741;52.272;9.580;2022-12-05T00:23:50;91.60;;;32.77;;
21166;SDS011;10741;52.272;9.580;2022-12-05T00:26:16;94.30;;;30.13;;
21166;SDS011;10741;52.272;9.580;2022-12-05T00:28:43;78.53;;;31.00;;
21166;SDS011;10741;52.272;9.580;2022-12-05T00:31:10;88.73;;;32.43;;
21166;SDS011;10741;52.272;9.580;2022-12-05T00:33:38;82.97;;;30.23;;
21166;SDS011;10741;52.272;9.580;2022-12-05T00:36:05;81.70;;;30.77;;
21166;SDS011;10741;52.272;9.580;2022-12-05T00:38:33;88.83;;;31.33;;
21166;SDS011;10741;52.272;9.580;2022-12-05T00:41:03;86.27;;;30.77;;
21166;SDS011;10741;52.272;9.580;2022-12-05T00:43:29;83.40;;;32.23;;
21166;SDS011;10741;52.272;9.580;2022-12-05T00:45:59;83.30;;;31.10;;
21166;SDS011;10741;52.272;9.580;2022-12-05T00:48:25;83.70;;;30.57;;
21166;SDS011;10741;52.272;9.580;2022-12-05T00:50:58;97.33;;;31.70;;
21166;SDS011;10741;52.272;9.580;2022-12-05T00:53:28;91.87;;;32.43;;
21166;SDS011;10741;52.272;9.580;2022-12-05T00:55:54;95.13;;;32.13;;
21166;SDS011;10741;52.272;9.580;2022-12-05T00:58:20;94.47;;;32.80;;
21166;SDS011;10741;52.272;9.580;2022-12-05T01:00:45;89.23;;;31.97;;
21166;SDS011;10741;52.272;9.580;2022-12-05T01:03:11;96.13;;;33.93;;
21166;SDS011;10741;52.272;9.580;2022-12-05T01:05:37;94.77;;;32.70;;
21166;SDS011;10741;52.272;9.580;2022-12-05T01:08:02;102.50;;;34.10;;
21166;SDS011;10741;52.272;9.580;2022-12-05T01:10:28;92.17;;;32.73;;
21166;SDS011;10741;52.272;9.580;2022-12-05T01:12:54;100.53;;;33.13;;
21166;SDS011;10741;52.272;9.580;2022-12-05T01:15:20;100.77;;;31.10;;
21166;SDS011;10741;52.272;9.580;2022-12-05T01:17:45;94.93;;;30.80;;
21166;SDS011;10741;52.272;9.580;2022-12-05T01:20:11;96.47;;;32.57;;
21166;SDS011;10741;52.272;9.580;2022-12-05T01:22:38;97.47;;;32.27;;
21166;SDS011;10741;52.272;9.580;2022-12-05T01:25:03;106.03;;;33.07;;
21166;SDS011;10741;52.272;9.580;2022-12-05T01:27:30;110.13;;;32.47;;
21166;SDS011;10741;52.272;9.580;2022-12-05T01:29:56;98.40;;;33.30;;
21166;SDS011;10741;52.272;9.580;2022-12-05T01:32:22;115.57;;;33.87;;
21166;SDS011;10741;52.272;9.580;2022-12-05T01:34:48;104.67;;;32.33;;
21166;SDS011;10741;52.272;9.580;2022-12-05T01:37:13;103.73;;;31.57;;
21166;SDS011;10741;52.272;9.580;2022-12-05T01:39:39;106.07;;;32.20;;
21166;SDS011;10741;52.272;9.580;2022-12-05T01:42:05;112.43;;;33.00;;
21166;SDS011;10741;52.272;9.580;2022-12-05T01:46:56;101.03;;;33.07;;
21166;SDS011;10741;52.272;9.580;2022-12-05T01:49:24;109.67;;;33.30;;
21166;SDS011;10741;52.272;9.580;2022-12-05T01:51:58;96.83;;;32.00;;
21166;SDS011;10741;52.272;9.580;2022-12-05T01:54:30;101.70;;;32.20;;
21166;SDS011;10741;52.272;9.580;2022-12-05T01:57:00;108.93;;;31.97;;
21166;SDS011;10741;52.272;9.580;2022-12-05T01:59:32;101.00;;;31.40;;
21166;SDS011;10741;52.272;9.580;2022-12-05T02:02:02;98.43;;;32.30;;
21166;SDS011;10741;52.272;9.580;2022-12-05T02:04:28;100.17;;;33.03;;
21166;SDS011;10741;52.272;9.580;2022-12-05T02:06:55;94.40;;;30.53;;
21166;SDS011;10741;52.272;9.580;2022-12-05T02:09:21;96.20;;;31.77;;
21166;SDS011;10741;52.272;9.580;2022-12-05T02:11:54;90.47;;;29.03;;
21166;SDS011;10741;52.272;9.580;2022-12-05T02:17:09;101.90;;;30.30;;
21166;SDS011;10741;52.272;9.580;2022-12-05T02:25:59;104.70;;;30.00;;
21166;SDS011;10741;52.272;9.580;2022-12-05T02:28:47;95.33;;;30.43;;
21166;SDS011;10741;52.272;9.580;2022-12-05T02:31:17;97.73;;;30.70;;
21166;SDS011;10741;52.272;9.580;2022-12-05T02:34:04;94.40;;;31.23;;
21166;SDS011;10741;52.272;9.580;2022-12-05T02:36:55;93.43;;;28.97;;
21166;SDS011;10741;52.272;9.580;2022-12-05T02:44:56;91.03;;;29.20;;
21166;SDS011;10741;52.272;9.580;2022-12-05T02:47:27;89.70;;;27.60;;
21166;SDS011;10741;52.272;9.580;2022-12-05T02:49:55;89.53;;;28.63;;
21166;SDS011;10741;52.272;9.580;2022-12-05T02:52:22;80.97;;;28.23;;
21166;SDS011;10741;52.272;9.580;2022-12-05T02:54:49;89.70;;;29.10;;
21166;SDS011;10741;52.272;9.580;2022-12-05T02:57:17;99.23;;;29.70;;
21166;SDS011;10741;52.272;9.580;2022-12-05T02:59:45;88.33;;;27.70;;
21166;SDS011;10741;52.272;9.580;2022-12-05T03:02:23;80.40;;;28.03;;
21166;SDS011;10741;52.272;9.580;2022-12-05T03:04:52;73.53;;;28.07;;
21166;SDS011;10741;52.272;9.580;2022-12-05T03:07:20;86.10;;;27.67;;
21166;SDS011;10741;52.272;9.580;2022-12-05T03:09:55;84.87;;;28.93;;
21166;SDS011;10741;52.272;9.580;2022-12-05T03:12:27;88.23;;;27.23;;
21166;SDS011;10741;52.272;9.580;2022-12-05T03:15:04;78.00;;;27.43;;
21166;SDS011;10741;52.272;9.580;2022-12-05T03:17:43;83.87;;;27.00;;
21166;SDS011;10741;52.272;9.580;2022-12-05T03:20:28;78.60;;;28.37;;
21166;SDS011;10741;52.272;9.580;2022-12-05T03:25:34;86.03;;;28.23;;
21166;SDS011;10741;52.272;9.580;2022-12-05T03:28:19;70.03;;;26.00;;
21166;SDS011;10741;52.272;9.580;2022-12-05T03:30:54;85.73;;;26.93;;
21166;SDS011;10741;52.272;9.580;2022-12-05T03:33:26;74.53;;;25.87;;
21166;SDS011;10741;52.272;9.580;2022-12-05T03:38:55;82.57;;;26.80;;
21166;SDS011;10741;52.272;9.580;2022-12-05T03:41:33;69.60;;;24.30;;
21166;SDS011;10741;52.272;9.580;2022-12-05T03:44:34;70.77;;;25.60;;
21166;SDS011;10741;52.272;9.580;2022-12-05T03:47:27;71.77;;;24.97;;
21166;SDS011;10741;52.272;9.580;2022-12-05T03:50:18;62.67;;;23.93;;
21166;SDS011;10741;52.272;9.580;2022-12-05T03:52:45;62.83;;;23.57;;
21166;SDS011;10741;52.272;9.580;2022-12-05T03:55:18;67.47;;;25.60;;
21166;SDS011;10741;52.272;9.580;2022-12-05T04:00:24;72.27;;;24.87;;
21166;SDS011;10741;52.272;9.580;2022-12-05T04:02:57;68.27;;;23.93;;
21166;SDS011;10741;52.272;9.580;2022-12-05T04:05:39;77.80;;;25.23;;
21166;SDS011;10741;52.272;9.580;2022-12-05T04:08:18;63.53;;;23.03;;
21166;SDS011;10741;52.272;9.580;2022-12-05T04:10:55;73.73;;;24.00;;
21166;SDS011;10741;52.272;9.580;2022-12-05T04:16:06;78.30;;;24.87;;
21166;SDS011;10741;52.272;9.580;2022-12-05T04:19:03;69.80;;;24.20;;
21166;SDS011;10741;52.272;9.580;2022-12-05T04:21:35;66.60;;;25.43;;
21166;SDS011;10741;52.272;9.580;2022-12-05T04:24:10;64.77;;;23.17;;
21166;SDS011;10741;52.272;9.580;2022-12-05T04:30:04;62.07;;;23.03;;
21166;SDS011;10741;52.272;9.580;2022-12-05T04:32:44;64.33;;;24.13;;
21166;SDS011;10741;52.272;9.580;2022-12-05T04:35:15;58.83;;;22.43;;
21166;SDS011;10741;52.272;9.580;2022-12-05T04:37:50;63.20;;;22.63;;
21166;SDS011;10741;52.272;9.580;2022-12-05T04:40:24;62.93;;;23.43;;
21166;SDS011;10741;52.272;9.580;2022-12-05T04:42:55;63.37;;;23.10;;
21166;SDS011;10741;52.272;9.580;2022-12-05T04:45:25;60.50;;;23.97;;
21166;SDS011;10741;52.272;9.580;2022-12-05T04:47:56;60.53;;;22.63;;
21166;SDS011;10741;52.272;9.580;2022-12-05T04:50:26;61.67;;;22.33;;
21166;SDS011;10741;52.272;9.580;2022-12-05T04:52:55;57.40;;;22.20;;
21166;SDS011;10741;52.272;9.580;2022-12-05T04:55:24;66.67;;;23.30;;
21166;SDS011;10741;52.272;9.580;2022-12-05T04:57:55;66.03;;;22.60;;
21166;SDS011;10741;52.272;9.580;2022-12-05T05:00:22;58.13;;;22.47;;
21166;SDS011;10741;52.272;9.580;2022-12-05T05:03:09;59.97;;;22.57;;
21166;SDS011;10741;52.272;9.580;2022-12-05T05:05:44;57.07;;;21.80;;
21166;SDS011;10741;52.272;9.580;2022-12-05T05:08:17;56.27;;;21.37;;
21166;SDS011;10741;52.272;9.580;2022-12-05T05:13:30;47.10;;;20.03;;
21166;SDS011;10741;52.272;9.580;2022-12-05T05:15:56;52.47;;;21.30;;
21166;SDS011;10741;52.272;9.580;2022-12-05T05:18:22;54.03;;;20.97;;
21166;SDS011;10741;52.272;9.580;2022-12-05T05:20:48;56.40;;;22.13;;
21166;SDS011;10741;52.272;9.580;2022-12-05T05:23:14;54.17;;;21.13;;
21166;SDS011;10741;52.272;9.580;2022-12-05T05:25:40;50.60;;;20.13;;
21166;SDS011;10741;52.272;9.580;2022-12-05T05:28:05;56.23;;;20.30;;
21166;SDS011;10741;52.272;9.580;2022-12-05T05:30:31;51.10;;;21.10;;
21166;SDS011;10741;52.272;9.580;2022-12-05T05:32:57;50.50;;;19.50;;
21166;SDS011;10741;52.272;9.580;2022-12-05T05:35:24;49.43;;;19.57;;
21166;SDS011;10741;52.272;9.580;2022-12-05T05:37:50;41.73;;;18.77;;
21166;SDS011;10741;52.272;9.580;2022-12-05T05:40:15;46.43;;;19.57;;
21166;SDS011;10741;52.272;9.580;2022-12-05T05:42:45;46.70;;;18.70;;
21166;SDS011;10741;52.272;9.580;2022-12-05T05:45:13;50.43;;;19.77;;
21166;SDS011;10741;52.272;9.580;2022-12-05T05:47:40;47.33;;;18.83;;
21166;SDS011;10741;52.272;9.580;2022-12-05T05:50:06;51.87;;;20.17;;
21166;SDS011;10741;52.272;9.580;2022-12-05T05:52:33;57.33;;;20.90;;
21166;SDS011;10741;52.272;9.580;2022-12-05T05:55:00;52.67;;;19.70;;
21166;SDS011;10741;52.272;9.580;2022-12-05T05:57:28;45.97;;;19.47;;
21166;SDS011;10741;52.272;9.580;2022-12-05T05:59:55;47.03;;;19.53;;
21166;SDS011;10741;52.272;9.580;2022-12-05T06:02:20;56.90;;;19.60;;
21166;SDS011;10741;52.272;9.580;2022-12-05T06:04:47;51.00;;;19.77;;
21166;SDS011;10741;52.272;9.580;2022-12-05T06:07:12;47.17;;;19.00;;
21166;SDS011;10741;52.272;9.580;2022-12-05T06:09:38;52.33;;;19.97;;
21166;SDS011;10741;52.272;9.580;2022-12-05T06:12:04;44.67;;;19.87;;
21166;SDS011;10741;52.272;9.580;2022-12-05T06:14:30;48.77;;;18.93;;
21166;SDS011;10741;52.272;9.580;2022-12-05T06:16:56;48.63;;;19.50;;
21166;SDS011;10741;52.272;9.580;2022-12-05T06:19:22;54.60;;;19.77;;
21166;SDS011;10741;52.272;9.580;2022-12-05T06:21:48;48.97;;;19.87;;
21166;SDS011;10741;52.272;9.580;2022-12-05T06:24:14;44.30;;;19.13;;
21166;SDS011;10741;52.272;9.580;2022-12-05T06:26:40;42.83;;;18.93;;
21166;SDS011;10741;52.272;9.580;2022-12-05T06:29:07;46.00;;;18.67;;
21166;SDS011;10741;52.272;9.580;2022-12-05T06:31:33;45.13;;;18.53;;
21166;SDS011;10741;52.272;9.580;2022-12-05T06:34:00;44.60;;;18.97;;
21166;SDS011;10741;52.272;9.580;2022-12-05T06:36:27;44.23;;;18.83;;
21166;SDS011;10741;52.272;9.580;2022-12-05T06:38:54;44.97;;;17.83;;
21166;SDS011;10741;52.272;9.580;2022-12-05T06:41:21;43.23;;;18.67;;
21166;SDS011;10741;52.272;9.580;2022-12-05T06:43:50;38.40;;;18.30;;
21166;SDS011;10741;52.272;9.580;2022-12-05T06:46:18;43.97;;;18.47;;
21166;SDS011;10741;52.272;9.580;2022-12-05T06:48:44;39.60;;;17.37;;
21166;SDS011;10741;52.272;9.580;2022-12-05T06:51:10;42.30;;;17.23;;
21166;SDS011;10741;52.272;9.580;2022-12-05T06:53:37;46.13;;;18.30;;
21166;SDS011;10741;52.272;9.580;2022-12-05T06:56:04;43.83;;;18.43;;
21166;SDS011;10741;52.272;9.580;2022-12-05T06:58:35;37.60;;;16.93;;
21166;SDS011;10741;52.272;9.580;2022-12-05T07:01:01;44.30;;;18.70;;
21166;SDS011;10741;52.272;9.580;2022-12-05T07:03:48;40.83;;;17.87;;
21166;SDS011;10741;52.272;9.580;2022-12-05T07:06:15;42.93;;;17.87;;
21166;SDS011;10741;52.272;9.580;2022-12-05T07:08:41;44.57;;;17.37;;
21166;SDS011;10741;52.272;9.580;2022-12-05T07:11:07;38.83;;;17.13;;
21166;SDS011;10741;52.272;9.580;2022-12-05T07:13:33;39.87;;;17.30;;
21166;SDS011;10741;52.272;9.580;2022-12-05T07:15:59;36.80;;;17.67;;
21166;SDS011;10741;52.272;9.580;2022-12-05T07:18:25;38.73;;;17.07;;
21166;SDS011;10741;52.272;9.580;2022-12-05T07:20:54;38.10;;;17.57;;
21166;SDS011;10741;52.272;9.580;2022-12-05T07:23:21;30.97;;;16.40;;
21166;SDS011;10741;52.272;9.580;2022-12-05T07:25:47;31.80;;;15.90;;
21166;SDS011;10741;52.272;9.580;2022-12-05T07:28:13;30.20;;;16.37;;
21166;SDS011;10741;52.272;9.580;2022-12-05T07:30:38;39.20;;;17.73;;
21166;SDS011;10741;52.272;9.580;2022-12-05T07:33:04;37.50;;;16.67;;
21166;SDS011;10741;52.272;9.580;2022-12-05T07:35:30;36.63;;;16.93;;
21166;SDS011;10741;52.272;9.580;2022-12-05T07:37:56;35.77;;;17.10;;
21166;SDS011;10741;52.272;9.580;2022-12-05T07:40:22;34.07;;;16.50;;
21166;SDS011;10741;52.272;9.580;2022-12-05T07:42:47;35.37;;;17.30;;
21166;SDS011;10741;52.272;9.580;2022-12-05T07:45:13;35.73;;;16.63;;
21166;SDS011;10741;52.272;9.580;2022-12-05T07:47:39;38.47;;;16.33;;
21166;SDS011;10741;52.272;9.580;2022-12-05T07:50:05;32.87;;;16.17;;
21166;SDS011;10741;52.272;9.580;2022-12-05T07:52:31;31.37;;;15.90;;
21166;SDS011;10741;52.272;9.580;2022-12-05T07:54:57;29.90;;;15.23;;
21166;SDS011;10741;52.272;9.580;2022-12-05T07:57:22;31.77;;;15.67;;
21166;SDS011;10741;52.272;9.580;2022-12-05T07:59:48;30.87;;;14.97;;
21166;SDS011;10741;52.272;9.580;2022-12-05T08:02:14;34.90;;;16.20;;
21166;SDS011;10741;52.272;9.580;2022-12-05T08:04:40;31.73;;;15.37;;
21166;SDS011;10741;52.272;9.580;2022-12-05T08:07:08;33.20;;;15.27;;
21166;SDS011;10741;52.272;9.580;2022-12-05T08:09:34;29.47;;;16.03;;
21166;SDS011;10741;52.272;9.580;2022-12-05T08:12:00;36.23;;;15.53;;
21166;SDS011;10741;52.272;9.580;2022-12-05T08:14:26;32.07;;;15.60;;
21166;SDS011;10741;52.272;9.580;2022-12-05T08:16:52;31.57;;;16.73;;
21166;SDS011;10741;52.272;9.580;2022-12-05T08:19:18;36.30;;;17.00;;
21166;SDS011;10741;52.272;9.580;2022-12-05T08:21:43;39.00;;;16.43;;
21166;SDS011;10741;52.272;9.580;2022-12-05T08:24:09;33.10;;;16.10;;
21166;SDS011;10741;52.272;9.580;2022-12-05T08:26:35;34.23;;;16.33;;
21166;SDS011;10741;52.272;9.580;2022-12-05T08:29:04;32.60;;;16.10;;
21166;SDS011;10741;52.272;9.580;2022-12-05T08:31:32;26.77;;;15.53;;
21166;SDS011;10741;52.272;9.580;2022-12-05T08:34:00;31.13;;;15.80;;
21166;SDS011;10741;52.272;9.580;2022-12-05T08:36:26;31.60;;;15.77;;
21166;SDS011;10741;52.272;9.580;2022-12-05T08:38:58;30.60;;;15.97;;
21166;SDS011;10741;52.272;9.580;2022-12-05T08:41:25;27.57;;;14.67;;
21166;SDS011;10741;52.272;9.580;2022-12-05T08:43:57;28.07;;;14.17;;
21166;SDS011;10741;52.272;9.580;2022-12-05T08:46:26;27.27;;;14.90;;
21166;SDS011;10741;52.272;9.580;2022-12-05T08:48:53;23.53;;;13.60;;
21166;SDS011;10741;52.272;9.580;2022-12-05T08:51:19;32.90;;;16.43;;
21166;SDS011;10741;52.272;9.580;2022-12-05T08:53:45;24.03;;;14.27;;
21166;SDS011;10741;52.272;9.580;2022-12-05T08:56:11;29.83;;;14.80;;
21166;SDS011;10741;52.272;9.580;2022-12-05T08:58:37;25.67;;;14.67;;
21166;SDS011;10741;52.272;9.580;2022-12-05T09:01:08;28.17;;;14.20;;
21166;SDS011;10741;52.272;9.580;2022-12-05T09:03:38;25.87;;;14.40;;
21166;SDS011;10741;52.272;9.580;2022-12-05T09:06:12;25.13;;;14.73;;
21166;SDS011;10741;52.272;9.580;2022-12-05T09:08:43;25.83;;;13.77;;
21166;SDS011;10741;52.272;9.580;2022-12-05T09:11:13;26.87;;;14.03;;
21166;SDS011;10741;52.272;9.580;2022-12-05T09:13:41;22.63;;;14.07;;
21166;SDS011;10741;52.272;9.580;2022-12-05T09:16:07;22.37;;;13.27;;
21166;SDS011;10741;52.272;9.580;2022-12-05T09:18:44;23.87;;;13.90;;
21166;SDS011;10741;52.272;9.580;2022-12-05T09:21:12;23.30;;;14.43;;
21166;SDS011;10741;52.272;9.580;2022-12-05T09:23:40;20.13;;;13.80;;
21166;SDS011;10741;52.272;9.580;2022-12-05T09:26:06;23.57;;;14.23;;
21166;SDS011;10741;52.272;9.580;2022-12-05T09:28:35;21.10;;;13.73;;
21166;SDS011;10741;52.272;9.580;2022-12-05T09:31:03;21.57;;;13.57;;
21166;SDS011;10741;52.272;9.580;2022-12-05T09:33:36;22.67;;;13.23;;
21166;SDS011;10741;52.272;9.580;2022-12-05T09:36:05;21.73;;;13.60;;
21166;SDS011;10741;52.272;9.580;2022-12-05T09:38:36;20.80;;;13.37;;
21166;SDS011;10741;52.272;9.580;2022-12-05T09:45:00;18.63;;;12.30;;
21166;SDS011;10741;52.272;9.580;2022-12-05T09:52:28;19.17;;;12.37;;
21166;SDS011;10741;52.272;9.580;2022-12-05T09:55:00;19.37;;;12.00;;
21166;SDS011;10741;52.272;9.580;2022-12-05T09:57:49;18.07;;;12.90;;
21166;SDS011;10741;52.272;9.580;2022-12-05T10:00:16;16.77;;;11.97;;
21166;SDS011;10741;52.272;9.580;2022-12-05T10:06:17;19.67;;;12.63;;
21166;SDS011;10741;52.272;9.580;2022-12-05T10:08:41;17.27;;;12.43;;
21166;SDS011;10741;52.272;9.580;2022-12-05T10:11:13;16.10;;;11.53;;
21166;SDS011;10741;52.272;9.580;2022-12-05T10:16:29;19.77;;;13.27;;
21166;SDS011;10741;52.272;9.580;2022-12-05T10:18:59;19.73;;;13.10;;
21166;SDS011;10741;52.272;9.580;2022-12-05T10:21:36;17.50;;;13.13;;
21166;SDS011;10741;52.272;9.580;2022-12-05T10:24:25;17.47;;;11.63;;
21166;SDS011;10741;52.272;9.580;2022-12-05T10:27:20;20.23;;;12.07;;
21166;SDS011;10741;52.272;9.580;2022-12-05T10:30:13;19.73;;;12.97;;
21166;SDS011;10741;52.272;9.580;2022-12-05T10:33:01;19.53;;;11.90;;
21166;SDS011;10741;52.272;9.580;2022-12-05T10:35:36;20.30;;;12.17;;
21166;SDS011;10741;52.272;9.580;2022-12-05T10:38:06;18.63;;;12.30;;
21166;SDS011;10741;52.272;9.580;2022-12-05T10:40:48;19.67;;;12.73;;
21166;SDS011;10741;52.272;9.580;2022-12-05T10:43:22;17.07;;;12.07;;
21166;SDS011;10741;52.272;9.580;2022-12-05T10:45:51;16.67;;;12.37;;
21166;SDS011;10741;52.272;9.580;2022-12-05T10:48:17;17.40;;;11.97;;
21166;SDS011;10741;52.272;9.580;2022-12-05T10:50:45;17.23;;;12.13;;
21166;SDS011;10741;52.272;9.580;2022-12-05T10:59:05;17.37;;;11.83;;
21166;SDS011;10741;52.272;9.580;2022-12-05T11:01:33;15.47;;;11.37;;
21166;SDS011;10741;52.272;9.580;2022-12-05T11:04:03;14.93;;;11.27;;
21166;SDS011;10741;52.272;9.580;2022-12-05T11:06:33;14.10;;;11.13;;
21166;SDS011;10741;52.272;9.580;2022-12-05T11:11:40;15.13;;;10.50;;
21166;SDS011;10741;52.272;9.580;2022-12-05T11:14:20;12.83;;;10.90;;
21166;SDS011;10741;52.272;9.580;2022-12-05T11:16:52;15.67;;;11.40;;
21166;SDS011;10741;52.272;9.580;2022-12-05T11:21:46;13.93;;;10.50;;
21166;SDS011;10741;52.272;9.580;2022-12-05T11:26:53;16.10;;;10.97;;
21166;SDS011;10741;52.272;9.580;2022-12-05T11:29:30;15.03;;;10.73;;
21166;SDS011;10741;52.272;9.580;2022-12-05T11:31:58;15.37;;;11.17;;
21166;SDS011;10741;52.272;9.580;2022-12-05T11:34:38;19.13;;;11.03;;
21166;SDS011;10741;52.272;9.580;2022-12-05T11:37:10;16.00;;;10.87;;
21166;SDS011;10741;52.272;9.580;2022-12-05T11:39:39;16.97;;;11.77;;
21166;SDS011;10741;52.272;9.580;2022-12-05T12:06:56;13.93;;;9.83;;
21166;SDS011;10741;52.272;9.580;2022-12-05T12:09:41;13.03;;;10.03;;
21166;SDS011;10741;52.272;9.580;2022-12-05T12:21:18;14.50;;;9.73;;
21166;SDS011;10741;52.272;9.580;2022-12-05T12:23:52;12.00;;;9.67;;
21166;SDS011;10741;52.272;9.580;2022-12-05T12:26:34;12.97;;;9.00;;
21166;SDS011;10741;52.272;9.580;2022-12-05T12:37:37;11.17;;;8.87;;
21166;SDS011;10741;52.272;9.580;2022-12-05T12:40:29;10.87;;;8.37;;
21166;SDS011;10741;52.272;9.580;2022-12-05T12:51:47;9.70;;;7.47;;
21166;SDS011;10741;52.272;9.580;2022-12-05T12:54:29;10.17;;;8.17;;
21166;SDS011;10741;52.272;9.580;2022-12-05T12:57:19;9.67;;;7.43;;
21166;SDS011;10741;52.272;9.580;2022-12-05T13:05:41;10.93;;;7.70;;
21166;SDS011;10741;52.272;9.580;2022-12-05T13:11:09;10.63;;;7.70;;
21166;SDS011;10741;52.272;9.580;2022-12-05T13:13:48;9.20;;;7.37;;
21166;SDS011;10741;52.272;9.580;2022-12-05T13:16:22;9.13;;;6.93;;
21166;SDS011;10741;52.272;9.580;2022-12-05T13:18:53;9.20;;;6.77;;
21166;SDS011;10741;52.272;9.580;2022-12-05T13:21:20;8.70;;;6.50;;
21166;SDS011;10741;52.272;9.580;2022-12-05T13:23:51;8.63;;;6.53;;
21166;SDS011;10741;52.272;9.580;2022-12-05T13:26:20;7.90;;;6.63;;
21166;SDS011;10741;52.272;9.580;2022-12-05T13:28:54;10.30;;;6.83;;
21166;SDS011;10741;52.272;9.580;2022-12-05T13:36:53;9.63;;;7.33;;
21166;SDS011;10741;52.272;9.580;2022-12-05T13:39:49;9.27;;;7.50;;
21166;SDS011;10741;52.272;9.580;2022-12-05T13:42:36;11.33;;;7.43;;
21166;SDS011;10741;52.272;9.580;2022-12-05T13:50:14;10.07;;;7.80;;
21166;SDS011;10741;52.272;9.580;2022-12-05T13:52:44;11.73;;;8.67;;
21166;SDS011;10741;52.272;9.580;2022-12-05T13:57:57;11.73;;;8.73;;
21166;SDS011;10741;52.272;9.580;2022-12-05T14:02:51;10.40;;;8.70;;
21166;SDS011;10741;52.272;9.580;2022-12-05T14:15:42;12.10;;;8.50;;
21166;SDS011;10741;52.272;9.580;2022-12-05T14:20:58;9.27;;;7.33;;
21166;SDS011;10741;52.272;9.580;2022-12-05T14:23:41;10.33;;;7.37;;
21166;SDS011;10741;52.272;9.580;2022-12-05T14:29:20;12.10;;;8.30;;
21166;SDS011;10741;52.272;9.580;2022-12-05T14:32:43;10.97;;;7.90;;
21166;SDS011;10741;52.272;9.580;2022-12-05T14:35:03;11.47;;;8.07;;
21166;SDS011;10741;52.272;9.580;2022-12-05T14:37:54;10.67;;;7.63;;
21166;SDS011;10741;52.272;9.580;2022-12-05T14:40:28;9.40;;;7.23;;
21166;SDS011;10741;52.272;9.580;2022-12-05T14:43:03;11.87;;;7.93;;
21166;SDS011;10741;52.272;9.580;2022-12-05T14:45:40;9.77;;;8.00;;
21166;SDS011;10741;52.272;9.580;2022-12-05T14:48:38;9.53;;;7.43;;
21166;SDS011;10741;52.272;9.580;2022-12-05T14:56:30;8.93;;;7.67;;
21166;SDS011;10741;52.272;9.580;2022-12-05T14:59:00;11.50;;;8.33;;
21166;SDS011;10741;52.272;9.580;2022-12-05T15:01:38;10.90;;;8.47;;
21166;SDS011;10741;52.272;9.580;2022-12-05T15:04:13;10.60;;;8.20;;
21166;SDS011;10741;52.272;9.580;2022-12-05T15:11:59;10.07;;;7.93;;
21166;SDS011;10741;52.272;9.580;2022-12-05T15:14:28;13.40;;;8.67;;
21166;SDS011;10741;52.272;9.580;2022-12-05T15:17:01;11.57;;;8.33;;
21166;SDS011;10741;52.272;9.580;2022-12-05T15:19:40;10.87;;;7.87;;
21166;SDS011;10741;52.272;9.580;2022-12-05T15:22:12;10.60;;;8.17;;
21166;SDS011;10741;52.272;9.580;2022-12-05T15:24:39;11.93;;;8.90;;
21166;SDS011;10741;52.272;9.580;2022-12-05T15:27:05;11.60;;;8.60;;
21166;SDS011;10741;52.272;9.580;2022-12-05T15:29:35;11.53;;;9.47;;
21166;SDS011;10741;52.272;9.580;2022-12-05T15:37:19;12.47;;;9.20;;
21166;SDS011;10741;52.272;9.580;2022-12-05T15:47:41;18.47;;;11.90;;
21166;SDS011;10741;52.272;9.580;2022-12-05T15:50:12;14.67;;;9.63;;
21166;SDS011;10741;52.272;9.580;2022-12-05T15:53:01;14.00;;;9.70;;
21166;SDS011;10741;52.272;9.580;2022-12-05T15:58:22;14.83;;;10.63;;
21166;SDS011;10741;52.272;9.580;2022-12-05T16:00:52;13.37;;;10.07;;
21166;SDS011;10741;52.272;9.580;2022-12-05T16:03:46;16.43;;;11.80;;
21166;SDS011;10741;52.272;9.580;2022-12-05T16:06:21;16.10;;;12.03;;
21166;SDS011;10741;52.272;9.580;2022-12-05T16:09:04;18.90;;;14.17;;
21166;SDS011;10741;52.272;9.580;2022-12-05T16:11:32;21.50;;;12.73;;
21166;SDS011;10741;52.272;9.580;2022-12-05T16:14:01;17.57;;;12.47;;
21166;SDS011;10741;52.272;9.580;2022-12-05T16:16:30;18.90;;;13.00;;
21166;SDS011;10741;52.272;9.580;2022-12-05T16:18:58;18.20;;;11.97;;
21166;SDS011;10741;52.272;9.580;2022-12-05T16:21:40;22.50;;;12.63;;
21166;SDS011;10741;52.272;9.580;2022-12-05T16:26:50;17.40;;;12.13;;
21166;SDS011;10741;52.272;9.580;2022-12-05T16:29:26;16.20;;;11.43;;
21166;SDS011;10741;52.272;9.580;2022-12-05T16:31:57;17.07;;;11.93;;
21166;SDS011;10741;52.272;9.580;2022-12-05T16:34:25;19.00;;;12.10;;
21166;SDS011;10741;52.272;9.580;2022-12-05T16:36:53;18.17;;;12.80;;
21166;SDS011;10741;52.272;9.580;2022-12-05T16:39:20;17.23;;;11.80;;
21166;SDS011;10741;52.272;9.580;2022-12-05T16:41:48;17.90;;;12.27;;
21166;SDS011;10741;52.272;9.580;2022-12-05T16:44:51;19.43;;;13.47;;
21166;SDS011;10741;52.272;9.580;2022-12-05T16:47:22;19.70;;;12.70;;
21166;SDS011;10741;52.272;9.580;2022-12-05T16:49:49;19.57;;;13.40;;
21166;SDS011;10741;52.272;9.580;2022-12-05T16:52:15;21.33;;;15.37;;
21166;SDS011;10741;52.272;9.580;2022-12-05T16:54:45;23.77;;;15.83;;
21166;SDS011;10741;52.272;9.580;2022-12-05T16:57:13;26.30;;;16.97;;
21166;SDS011;10741;52.272;9.580;2022-12-05T16:59:40;25.83;;;17.17;;
21166;SDS011;10741;52.272;9.580;2022-12-05T17:02:15;24.33;;;16.27;;
21166;SDS011;10741;52.272;9.580;2022-12-05T17:04:42;22.03;;;15.07;;
21166;SDS011;10741;52.272;9.580;2022-12-05T17:07:08;19.90;;;13.33;;
21166;SDS011;10741;52.272;9.580;2022-12-05T17:09:33;20.73;;;13.40;;
21166;SDS011;10741;52.272;9.580;2022-12-05T17:12:21;21.77;;;13.60;;
21166;SDS011;10741;52.272;9.580;2022-12-05T17:14:48;19.83;;;13.70;;
21166;SDS011;10741;52.272;9.580;2022-12-05T17:17:14;21.27;;;14.57;;
21166;SDS011;10741;52.272;9.580;2022-12-05T17:19:42;20.87;;;13.97;;
21166;SDS011;10741;52.272;9.580;2022-12-05T17:22:07;19.87;;;14.47;;
21166;SDS011;10741;52.272;9.580;2022-12-05T17:24:35;21.10;;;14.53;;
21166;SDS011;10741;52.272;9.580;2022-12-05T17:27:01;18.67;;;13.00;;
21166;SDS011;10741;52.272;9.580;2022-12-05T17:29:26;19.03;;;12.73;;
21166;SDS011;10741;52.272;9.580;2022-12-05T17:31:52;20.50;;;13.30;;
21166;SDS011;10741;52.272;9.580;2022-12-05T17:34:18;18.83;;;13.23;;
21166;SDS011;10741;52.272;9.580;2022-12-05T17:36:44;22.57;;;14.33;;
21166;SDS011;10741;52.272;9.580;2022-12-05T17:39:10;21.27;;;14.43;;
21166;SDS011;10741;52.272;9.580;2022-12-05T17:41:36;19.93;;;14.50;;
21166;SDS011;10741;52.272;9.580;2022-12-05T17:44:02;21.77;;;16.17;;
21166;SDS011;10741;52.272;9.580;2022-12-05T17:46:29;21.60;;;14.73;;
21166;SDS011;10741;52.272;9.580;2022-12-05T17:48:55;18.47;;;13.33;;